WetterOnline ( https://www.wetteronline.de )

Wetter aktuell Ulm

Aktuelles Wetter: Ulm-Mähringen (592m)

6-stündlich | Neueste Meldungen
Ortszeit Temperatur Wetter
So, 25.10. 13:00 11.2° C fast wolkenlos
So, 25.10. 7:00 2.9° C Nebel
So, 25.10. 2:00 4.3° C Nebel
Sa, 24.10. 20:00 8.9° C wolkenlos
Sa, 24.10. 14:00 13.9° C bedeckt
Sa, 24.10. 8:00 10.7° C leichter Regen
Sa, 24.10. 2:00 11.5° C bedeckt
Fr, 23.10. 20:00 12.3° C Regen
Ortszeit Temperatur Wetter
So, 25.10. 17:30 11.8° C bedeckt
So, 25.10. 17:20 11.8° C bedeckt
So, 25.10. 17:10 12.1° C bedeckt
So, 25.10. 17:00 12.2° C bewölkt
So, 25.10. 16:50 12.2° C bewölkt
So, 25.10. 16:40 12.0° C wolkig
So, 25.10. 16:30 12.6° C leicht bewölkt
So, 25.10. 16:00 14.0° C wolkig
So, 25.10. 15:30 13.9° C leicht bewölkt
So, 25.10. 15:00 14.0° C leicht bewölkt
So, 25.10. 14:30 14.2° C wolkenlos
Ortszeit Relative Feuchte Sichtweite
So, 25.10. 13:00 82% 23 km
So, 25.10. 7:00 99% 100 m
So, 25.10. 2:00 99% 0.6 km
Sa, 24.10. 20:00 90% 55 km
Sa, 24.10. 14:00 75% >70 km
Sa, 24.10. 8:00 97% 25 km
Sa, 24.10. 2:00 94% 27 km
Fr, 23.10. 20:00 95% 24 km
Ortszeit Relative Feuchte Sichtweite
So, 25.10. 17:30 83% 50 km
So, 25.10. 17:20 83% -
So, 25.10. 17:10 81% -
So, 25.10. 17:00 81% 60 km
So, 25.10. 16:50 81% -
So, 25.10. 16:40 82% -
So, 25.10. 16:30 79% 60 km
So, 25.10. 16:00 71% 60 km
So, 25.10. 15:30 71% >70 km
So, 25.10. 15:00 64% 55 km
So, 25.10. 14:30 64% >70 km
Ortszeit Niederschlagsmenge Niederschlagsart
So, 25.10. 13:00 0.0 l/m2 in 6 Std. -
So, 25.10. 7:00 0.0 l/m2 in 12 Std. -
So, 25.10. 2:00 0.0 l/m2 in 6 Std. -
Sa, 24.10. 20:00 0.1 l/m2 in 12 Std. -
Sa, 24.10. 14:00 0.1 l/m2 in 6 Std. Regen
Sa, 24.10. 8:00 10 l/m2 in 12 Std. Regen
Sa, 24.10. 2:00 0.2 l/m2 in 6 Std. Regen
Fr, 23.10. 20:00 4 l/m2 in 12 Std. Regen
Ortszeit Niederschlagsmenge Niederschlagsart
So, 25.10. 17:30 0.0 l/m2 in 1 Std. -
So, 25.10. 17:20 keine Meldung -
So, 25.10. 17:10 keine Meldung -
So, 25.10. 17:00 0.0 l/m2 in 1 Std. -
So, 25.10. 16:50 keine Meldung -
So, 25.10. 16:40 keine Meldung -
So, 25.10. 16:30 0.0 l/m2 in 1 Std. -
So, 25.10. 16:00 0.0 l/m2 in 1 Std. -
So, 25.10. 15:30 0.0 l/m2 in 1 Std. -
So, 25.10. 15:00 0.0 l/m2 in 1 Std. -
So, 25.10. 14:30 0.0 l/m2 in 1 Std. -
Ortszeit Stärke Spitze Richtung
km/h Bft. km/h Grad Sektor
So, 25.10. 13:00 13 3 20 170° S
So, 25.10. 7:00 4 1 11 180° S
So, 25.10. 2:00 2 1 9 260° W
Sa, 24.10. 20:00 6 1 30 200° S
Sa, 24.10. 14:00 11 2 29 220° SW
Sa, 24.10. 8:00 7 2 22 220° SW
Sa, 24.10. 2:00 14 3 22 220° SW
Fr, 23.10. 20:00 11 2 22 220° SW
Ortszeit Stärke Spitze Richtung
km/h Bft. km/h Grad Sektor
So, 25.10. 17:30 4 1 7 200° S
So, 25.10. 17:20 4 1 - 200° S
So, 25.10. 17:10 6 1 - 230° SW
So, 25.10. 17:00 7 2 14 180° S
So, 25.10. 16:50 7 2 - 180° S
So, 25.10. 16:40 11 2 - 170° S
So, 25.10. 16:30 11 2 14 170° S
So, 25.10. 16:00 11 2 22 160° S
So, 25.10. 15:30 9 2 22 180° S
So, 25.10. 15:00 15 3 24 200° S
So, 25.10. 14:30 14 3 25 210° SW
Ortszeit Untergrenze Bedeckung Gattung
total tief tief mittel hoch
So, 25.10. 13:00 9000 m 2/8 0/8 - - -
So, 25.10. 7:00 <30 m 8/8 0/8 - - -
So, 25.10. 2:00 <30 m 3/8 0/8 - - -
Sa, 24.10. 20:00 - 0/8 0/8 - - -
Sa, 24.10. 14:00 1500 m 8/8 8/8 - - -
Sa, 24.10. 8:00 30 m 8/8 8/8 - - -
Sa, 24.10. 2:00 210 m 8/8 8/8 - - -
Fr, 23.10. 20:00 240 m 8/8 3/8 - - -
Ortszeit Bedeckungsgrad in Achtel und Wolkenuntergrenze
So, 25.10. 17:30 8(4200m) 8(4800m) 8(5700m)
So, 25.10. 17:20 8(4200m) 8(4800m) 8(5700m)
So, 25.10. 17:10 8(4200m) 8(5700m) 8(7500m)
So, 25.10. 17:00 7(4200m) 7(5700m) 8(7800m)
So, 25.10. 16:50 7(4200m) 7(5700m) 8(7800m)
So, 25.10. 16:40 4(4500m) 5(5700m) 7(7800m)
So, 25.10. 16:30 4(8100m) 7(8100m)
So, 25.10. 16:00 5(5100m) 7(8100m)
So, 25.10. 15:30 1(6900m)
So, 25.10. 15:00 3(7200m)
So, 25.10. 14:30 keine Wolken
Ortszeit Luftdruck NN (hPa) Tendenz (hPa in 3 Std.)
So, 25.10. 13:00 1010 - 1,7
So, 25.10. 7:00 1015 - 1,0
So, 25.10. 2:00 1017 - 1,7
Sa, 24.10. 20:00 1018 - 0,2
Sa, 24.10. 14:00 1018 - 0,5
Sa, 24.10. 8:00 1018 + 1,1
Sa, 24.10. 2:00 1016 + 0,3
Fr, 23.10. 20:00 1015 + 0,8
Ortszeit Luftdruck NN (hPa) Tendenz (hPa in 3 Std.)
So, 25.10. 17:30 1007 - 1,3
So, 25.10. 17:20 1007 keine Meldung
So, 25.10. 17:10 1007 keine Meldung
So, 25.10. 17:00 1007 - 1,5
So, 25.10. 16:50 1007 keine Meldung
So, 25.10. 16:40 1007 keine Meldung
So, 25.10. 16:30 1007 - 1,7
So, 25.10. 16:00 1007 - 1,8
So, 25.10. 15:30 1007 - 1,8
So, 25.10. 15:00 1008 - 2,0
So, 25.10. 14:30 1008 - 1,9
Ortszeit Schneehöhe (cm)
So, 25.10. 13:00 0
So, 25.10. 7:00 0
So, 25.10. 2:00 0
Sa, 24.10. 20:00 0
Sa, 24.10. 14:00 0
Sa, 24.10. 8:00 0
Sa, 24.10. 2:00 0
Fr, 23.10. 20:00 0
Ortszeit Schneehöhe (cm)
So, 25.10. 17:30 0
So, 25.10. 17:20 0
So, 25.10. 17:10 0
So, 25.10. 17:00 0
So, 25.10. 16:50 0
So, 25.10. 16:40 0
So, 25.10. 16:30 0
So, 25.10. 16:00 0
So, 25.10. 15:30 0
So, 25.10. 15:00 0
So, 25.10. 14:30 0
Link zu dieser Seite / Seite empfehlen

Das Wetter in ...